sensor_id;sensor_type;location;lat;lon;timestamp;temperature;humidity
37658;DHT22;23500;53.268;8.308;2023-02-01T00:01:31;15.80;69.10
37658;DHT22;23500;53.268;8.308;2023-02-01T00:03:57;15.80;69.10
37658;DHT22;23500;53.268;8.308;2023-02-01T00:06:23;15.80;69.20
37658;DHT22;23500;53.268;8.308;2023-02-01T00:08:51;15.80;69.20
37658;DHT22;23500;53.268;8.308;2023-02-01T00:11:17;15.80;70.00
37658;DHT22;23500;53.268;8.308;2023-02-01T00:13:43;15.80;69.30
37658;DHT22;23500;53.268;8.308;2023-02-01T00:16:20;15.80;69.30
37658;DHT22;23500;53.268;8.308;2023-02-01T00:18:47;15.70;69.30
37658;DHT22;23500;53.268;8.308;2023-02-01T00:21:15;15.70;69.30
37658;DHT22;23500;53.268;8.308;2023-02-01T00:23:41;15.70;69.40
37658;DHT22;23500;53.268;8.308;2023-02-01T00:28:33;15.70;68.90
37658;DHT22;23500;53.268;8.308;2023-02-01T00:31:00;15.70;69.50
37658;DHT22;23500;53.268;8.308;2023-02-01T00:33:27;15.70;69.40
37658;DHT22;23500;53.268;8.308;2023-02-01T00:36:04;15.60;69.40
37658;DHT22;23500;53.268;8.308;2023-02-01T00:38:31;15.70;69.60
37658;DHT22;23500;53.268;8.308;2023-02-01T00:41:10;15.70;69.60
37658;DHT22;23500;53.268;8.308;2023-02-01T00:43:36;15.70;69.60
37658;DHT22;23500;53.268;8.308;2023-02-01T00:46:02;15.60;69.60
37658;DHT22;23500;53.268;8.308;2023-02-01T00:48:28;15.60;69.60
37658;DHT22;23500;53.268;8.308;2023-02-01T00:50:54;15.60;69.70
37658;DHT22;23500;53.268;8.308;2023-02-01T00:53:19;15.60;69.70
37658;DHT22;23500;53.268;8.308;2023-02-01T00:55:47;15.60;69.70
37658;DHT22;23500;53.268;8.308;2023-02-01T00:58:14;15.60;69.70
37658;DHT22;23500;53.268;8.308;2023-02-01T01:00:39;15.60;69.80
37658;DHT22;23500;53.268;8.308;2023-02-01T01:03:05;15.60;69.80
37658;DHT22;23500;53.268;8.308;2023-02-01T01:05:46;15.60;69.80
37658;DHT22;23500;53.268;8.308;2023-02-01T01:08:12;15.60;69.80
37658;DHT22;23500;53.268;8.308;2023-02-01T01:10:38;15.50;69.80
37658;DHT22;23500;53.268;8.308;2023-02-01T01:13:04;15.50;69.80
37658;DHT22;23500;53.268;8.308;2023-02-01T01:15:30;15.50;69.90
37658;DHT22;23500;53.268;8.308;2023-02-01T01:17:56;15.50;69.80
37658;DHT22;23500;53.268;8.308;2023-02-01T01:20:21;15.50;69.90
37658;DHT22;23500;53.268;8.308;2023-02-01T01:22:50;15.50;69.90
37658;DHT22;23500;53.268;8.308;2023-02-01T01:25:15;15.50;70.00
37658;DHT22;23500;53.268;8.308;2023-02-01T01:27:41;15.50;69.90
37658;DHT22;23500;53.268;8.308;2023-02-01T01:30:07;15.50;70.00
37658;DHT22;23500;53.268;8.308;2023-02-01T01:32:33;15.50;70.00
37658;DHT22;23500;53.268;8.308;2023-02-01T01:34:58;15.50;70.00
37658;DHT22;23500;53.268;8.308;2023-02-01T01:37:24;15.50;70.00
37658;DHT22;23500;53.268;8.308;2023-02-01T01:39:50;15.50;70.10
37658;DHT22;23500;53.268;8.308;2023-02-01T01:42:15;15.40;70.00
37658;DHT22;23500;53.268;8.308;2023-02-01T01:45:00;15.50;70.10
37658;DHT22;23500;53.268;8.308;2023-02-01T01:47:35;15.40;70.10
37658;DHT22;23500;53.268;8.308;2023-02-01T01:50:04;15.40;70.10
37658;DHT22;23500;53.268;8.308;2023-02-01T01:52:31;15.40;70.10
37658;DHT22;23500;53.268;8.308;2023-02-01T01:54:58;15.40;70.10
37658;DHT22;23500;53.268;8.308;2023-02-01T01:57:28;15.40;70.10
37658;DHT22;23500;53.268;8.308;2023-02-01T02:02:32;15.40;70.20
37658;DHT22;23500;53.268;8.308;2023-02-01T02:04:58;15.40;70.20
37658;DHT22;23500;53.268;8.308;2023-02-01T02:07:28;15.40;70.20
37658;DHT22;23500;53.268;8.308;2023-02-01T02:09:55;15.40;70.20
37658;DHT22;23500;53.268;8.308;2023-02-01T02:12:21;15.40;70.20
37658;DHT22;23500;53.268;8.308;2023-02-01T02:14:46;15.40;70.20
37658;DHT22;23500;53.268;8.308;2023-02-01T02:17:22;15.40;70.20
37658;DHT22;23500;53.268;8.308;2023-02-01T02:44:56;15.20;70.40
37658;DHT22;23500;53.268;8.308;2023-02-01T02:48:19;15.20;70.40
37658;DHT22;23500;53.268;8.308;2023-02-01T02:54:01;15.20;69.90
37658;DHT22;23500;53.268;8.308;2023-02-01T02:56:46;15.20;70.60
37658;DHT22;23500;53.268;8.308;2023-02-01T02:59:32;15.20;70.50
37658;DHT22;23500;53.268;8.308;2023-02-01T03:02:18;15.20;70.60
37658;DHT22;23500;53.268;8.308;2023-02-01T03:05:03;15.20;70.60
37658;DHT22;23500;53.268;8.308;2023-02-01T03:07:55;15.20;70.60
37658;DHT22;23500;53.268;8.308;2023-02-01T03:15:45;15.20;70.60
37658;DHT22;23500;53.268;8.308;2023-02-01T03:18:17;15.20;70.60
37658;DHT22;23500;53.268;8.308;2023-02-01T03:20:46;15.20;70.60
37658;DHT22;23500;53.268;8.308;2023-02-01T03:23:16;15.20;70.60
37658;DHT22;23500;53.268;8.308;2023-02-01T03:25:44;15.20;70.60
37658;DHT22;23500;53.268;8.308;2023-02-01T03:28:13;15.20;70.60
37658;DHT22;23500;53.268;8.308;2023-02-01T03:30:44;15.20;70.60
37658;DHT22;23500;53.268;8.308;2023-02-01T03:33:12;15.20;70.60
37658;DHT22;23500;53.268;8.308;2023-02-01T03:36:40;15.20;70.60
37658;DHT22;23500;53.268;8.308;2023-02-01T03:39:09;15.20;70.60
37658;DHT22;23500;53.268;8.308;2023-02-01T03:42:09;15.10;70.50
37658;DHT22;23500;53.268;8.308;2023-02-01T03:44:43;15.10;70.60
37658;DHT22;23500;53.268;8.308;2023-02-01T03:47:17;15.10;70.60
37658;DHT22;23500;53.268;8.308;2023-02-01T03:50:03;15.10;70.70
37658;DHT22;23500;53.268;8.308;2023-02-01T03:52:37;15.10;70.70
37658;DHT22;23500;53.268;8.308;2023-02-01T03:55:06;15.10;70.70
37658;DHT22;23500;53.268;8.308;2023-02-01T03:57:37;15.10;70.70
37658;DHT22;23500;53.268;8.308;2023-02-01T04:00:17;15.10;70.70
37658;DHT22;23500;53.268;8.308;2023-02-01T04:02:43;15.10;70.70
37658;DHT22;23500;53.268;8.308;2023-02-01T04:05:09;15.10;70.70
37658;DHT22;23500;53.268;8.308;2023-02-01T04:07:34;15.10;70.70
37658;DHT22;23500;53.268;8.308;2023-02-01T04:10:00;15.10;70.70
37658;DHT22;23500;53.268;8.308;2023-02-01T04:12:26;15.10;70.80
37658;DHT22;23500;53.268;8.308;2023-02-01T04:14:51;15.10;70.80
37658;DHT22;23500;53.268;8.308;2023-02-01T04:17:17;15.10;70.80
37658;DHT22;23500;53.268;8.308;2023-02-01T04:19:42;15.10;70.80
37658;DHT22;23500;53.268;8.308;2023-02-01T04:22:08;15.00;70.80
37658;DHT22;23500;53.268;8.308;2023-02-01T04:24:34;15.00;70.80
37658;DHT22;23500;53.268;8.308;2023-02-01T04:26:59;15.00;70.80
37658;DHT22;23500;53.268;8.308;2023-02-01T04:29:25;15.00;70.80
37658;DHT22;23500;53.268;8.308;2023-02-01T04:31:51;15.00;70.90
37658;DHT22;23500;53.268;8.308;2023-02-01T04:34:16;15.00;70.80
37658;DHT22;23500;53.268;8.308;2023-02-01T04:36:42;15.00;70.90
37658;DHT22;23500;53.268;8.308;2023-02-01T04:39:09;15.00;70.80
37658;DHT22;23500;53.268;8.308;2023-02-01T04:41:35;15.10;70.90
37658;DHT22;23500;53.268;8.308;2023-02-01T04:44:01;15.10;70.80
37658;DHT22;23500;53.268;8.308;2023-02-01T04:46:26;15.20;70.80
37658;DHT22;23500;53.268;8.308;2023-02-01T04:48:52;15.20;70.40
37658;DHT22;23500;53.268;8.308;2023-02-01T04:51:18;15.40;70.30
37658;DHT22;23500;53.268;8.308;2023-02-01T04:53:44;15.50;69.70
37658;DHT22;23500;53.268;8.308;2023-02-01T04:56:10;16.60;66.10
37658;DHT22;23500;53.268;8.308;2023-02-01T04:58:36;17.80;61.90
37658;DHT22;23500;53.268;8.308;2023-02-01T05:01:03;19.00;59.00
37658;DHT22;23500;53.268;8.308;2023-02-01T05:03:30;20.10;55.60
37658;DHT22;23500;53.268;8.308;2023-02-01T05:05:56;21.10;53.20
37658;DHT22;23500;53.268;8.308;2023-02-01T05:08:22;21.90;51.20
37658;DHT22;23500;53.268;8.308;2023-02-01T05:10:48;22.60;49.30
37658;DHT22;23500;53.268;8.308;2023-02-01T05:13:13;23.30;47.80
37658;DHT22;23500;53.268;8.308;2023-02-01T05:15:57;23.80;46.90
37658;DHT22;23500;53.268;8.308;2023-02-01T05:18:23;24.20;45.90
37658;DHT22;23500;53.268;8.308;2023-02-01T05:20:49;24.50;45.20
37658;DHT22;23500;53.268;8.308;2023-02-01T05:23:14;24.70;44.50
37658;DHT22;23500;53.268;8.308;2023-02-01T05:25:40;24.80;44.40
37658;DHT22;23500;53.268;8.308;2023-02-01T05:28:06;24.80;44.60
37658;DHT22;23500;53.268;8.308;2023-02-01T05:30:32;24.60;44.90
37658;DHT22;23500;53.268;8.308;2023-02-01T05:33:00;24.30;45.50
37658;DHT22;23500;53.268;8.308;2023-02-01T05:35:26;24.00;46.30
37658;DHT22;23500;53.268;8.308;2023-02-01T05:37:52;23.60;47.00
37658;DHT22;23500;53.268;8.308;2023-02-01T05:40:18;23.30;47.80
37658;DHT22;23500;53.268;8.308;2023-02-01T05:42:44;22.90;48.60
37658;DHT22;23500;53.268;8.308;2023-02-01T05:45:09;22.50;49.50
37658;DHT22;23500;53.268;8.308;2023-02-01T05:47:35;22.10;50.30
37658;DHT22;23500;53.268;8.308;2023-02-01T05:50:02;21.70;51.10
37658;DHT22;23500;53.268;8.308;2023-02-01T05:52:28;21.40;52.00
37658;DHT22;23500;53.268;8.308;2023-02-01T05:54:53;21.00;52.70
37658;DHT22;23500;53.268;8.308;2023-02-01T05:57:19;20.80;53.40
37658;DHT22;23500;53.268;8.308;2023-02-01T05:59:45;20.50;54.00
37658;DHT22;23500;53.268;8.308;2023-02-01T06:02:12;20.30;54.50
37658;DHT22;23500;53.268;8.308;2023-02-01T06:04:37;20.10;55.10
37658;DHT22;23500;53.268;8.308;2023-02-01T06:07:04;19.80;55.60
37658;DHT22;23500;53.268;8.308;2023-02-01T06:09:31;19.70;56.00
37658;DHT22;23500;53.268;8.308;2023-02-01T06:11:56;19.40;56.40
37658;DHT22;23500;53.268;8.308;2023-02-01T06:14:23;19.30;57.00
37658;DHT22;23500;53.268;8.308;2023-02-01T06:16:49;19.00;57.40
37658;DHT22;23500;53.268;8.308;2023-02-01T06:19:15;18.90;57.90
37658;DHT22;23500;53.268;8.308;2023-02-01T06:21:41;18.70;58.40
37658;DHT22;23500;53.268;8.308;2023-02-01T06:24:07;18.50;58.90
37658;DHT22;23500;53.268;8.308;2023-02-01T06:28:59;18.20;59.20
37658;DHT22;23500;53.268;8.308;2023-02-01T06:31:24;18.50;58.90
37658;DHT22;23500;53.268;8.308;2023-02-01T06:33:51;19.30;57.10
37658;DHT22;23500;53.268;8.308;2023-02-01T06:36:17;19.90;55.50
37658;DHT22;23500;53.268;8.308;2023-02-01T06:38:44;20.30;54.30
37658;DHT22;23500;53.268;8.308;2023-02-01T06:41:10;20.70;53.60
37658;DHT22;23500;53.268;8.308;2023-02-01T06:43:36;20.80;53.40
37658;DHT22;23500;53.268;8.308;2023-02-01T06:46:06;20.80;53.40
37658;DHT22;23500;53.268;8.308;2023-02-01T06:48:33;20.70;53.70
37658;DHT22;23500;53.268;8.308;2023-02-01T06:50:59;20.50;54.10
37658;DHT22;23500;53.268;8.308;2023-02-01T06:53:25;20.30;54.60
37658;DHT22;23500;53.268;8.308;2023-02-01T06:55:59;20.10;55.20
37658;DHT22;23500;53.268;8.308;2023-02-01T06:58:30;19.90;55.70
37658;DHT22;23500;53.268;8.308;2023-02-01T07:00:56;19.70;56.20
37658;DHT22;23500;53.268;8.308;2023-02-01T07:03:21;19.50;56.60
37658;DHT22;23500;53.268;8.308;2023-02-01T07:05:47;19.30;56.90
37658;DHT22;23500;53.268;8.308;2023-02-01T07:08:13;19.20;57.30
37658;DHT22;23500;53.268;8.308;2023-02-01T07:10:38;19.10;57.70
37658;DHT22;23500;53.268;8.308;2023-02-01T07:13:04;18.90;57.90
37658;DHT22;23500;53.268;8.308;2023-02-01T07:15:30;18.80;58.20
37658;DHT22;23500;53.268;8.308;2023-02-01T07:17:56;18.60;58.50
37658;DHT22;23500;53.268;8.308;2023-02-01T07:20:22;18.50;58.90
37658;DHT22;23500;53.268;8.308;2023-02-01T07:22:48;18.30;59.30
37658;DHT22;23500;53.268;8.308;2023-02-01T07:25:14;18.20;59.60
37658;DHT22;23500;53.268;8.308;2023-02-01T07:27:39;18.10;60.00
37658;DHT22;23500;53.268;8.308;2023-02-01T07:30:06;18.00;60.40
37658;DHT22;23500;53.268;8.308;2023-02-01T07:32:32;17.80;60.70
37658;DHT22;23500;53.268;8.308;2023-02-01T07:34:59;17.70;61.00
37658;DHT22;23500;53.268;8.308;2023-02-01T07:37:25;17.60;61.30
37658;DHT22;23500;53.268;8.308;2023-02-01T07:39:51;17.60;61.70
37658;DHT22;23500;53.268;8.308;2023-02-01T07:42:17;17.40;61.90
37658;DHT22;23500;53.268;8.308;2023-02-01T07:44:42;17.40;62.30
37658;DHT22;23500;53.268;8.308;2023-02-01T07:47:08;17.30;62.50
37658;DHT22;23500;53.268;8.308;2023-02-01T07:49:34;17.20;62.80
37658;DHT22;23500;53.268;8.308;2023-02-01T07:52:00;17.10;63.00
37658;DHT22;23500;53.268;8.308;2023-02-01T07:54:25;17.10;63.30
37658;DHT22;23500;53.268;8.308;2023-02-01T07:56:52;17.00;63.40
37658;DHT22;23500;53.268;8.308;2023-02-01T07:59:18;17.00;63.70
37658;DHT22;23500;53.268;8.308;2023-02-01T08:01:43;16.90;63.80
37658;DHT22;23500;53.268;8.308;2023-02-01T08:04:12;16.80;63.90
37658;DHT22;23500;53.268;8.308;2023-02-01T08:06:39;16.80;64.20
37658;DHT22;23500;53.268;8.308;2023-02-01T08:09:05;16.70;64.30
37658;DHT22;23500;53.268;8.308;2023-02-01T08:11:31;16.70;64.40
37658;DHT22;23500;53.268;8.308;2023-02-01T08:13:58;16.70;64.60
37658;DHT22;23500;53.268;8.308;2023-02-01T08:16:24;16.60;64.70
37658;DHT22;23500;53.268;8.308;2023-02-01T08:18:50;16.60;64.70
37658;DHT22;23500;53.268;8.308;2023-02-01T08:21:22;16.60;64.90
37658;DHT22;23500;53.268;8.308;2023-02-01T08:23:48;16.60;65.00
37658;DHT22;23500;53.268;8.308;2023-02-01T08:26:19;16.50;64.90
37658;DHT22;23500;53.268;8.308;2023-02-01T08:28:55;16.50;65.00
37658;DHT22;23500;53.268;8.308;2023-02-01T08:31:22;16.50;65.00
37658;DHT22;23500;53.268;8.308;2023-02-01T08:33:51;16.50;65.10
37658;DHT22;23500;53.268;8.308;2023-02-01T08:36:18;16.50;65.20
37658;DHT22;23500;53.268;8.308;2023-02-01T08:38:44;16.40;65.20
37658;DHT22;23500;53.268;8.308;2023-02-01T08:41:13;16.40;65.30
37658;DHT22;23500;53.268;8.308;2023-02-01T08:43:39;16.40;65.50
37658;DHT22;23500;53.268;8.308;2023-02-01T08:46:06;16.30;65.50
37658;DHT22;23500;53.268;8.308;2023-02-01T08:48:33;16.30;65.70
37658;DHT22;23500;53.268;8.308;2023-02-01T08:51:08;16.30;65.70
37658;DHT22;23500;53.268;8.308;2023-02-01T08:53:34;16.30;65.80
37658;DHT22;23500;53.268;8.308;2023-02-01T08:56:01;16.30;65.80
37658;DHT22;23500;53.268;8.308;2023-02-01T08:58:27;16.30;66.00
37658;DHT22;23500;53.268;8.308;2023-02-01T09:00:53;16.20;65.90
37658;DHT22;23500;53.268;8.308;2023-02-01T09:03:18;16.20;66.00
37658;DHT22;23500;53.268;8.308;2023-02-01T09:05:44;16.20;66.10
37658;DHT22;23500;53.268;8.308;2023-02-01T09:08:11;16.20;66.00
37658;DHT22;23500;53.268;8.308;2023-02-01T09:10:41;16.20;66.00
37658;DHT22;23500;53.268;8.308;2023-02-01T09:13:07;16.20;66.00
37658;DHT22;23500;53.268;8.308;2023-02-01T09:15:33;16.20;66.10
37658;DHT22;23500;53.268;8.308;2023-02-01T09:17:59;16.20;66.10
37658;DHT22;23500;53.268;8.308;2023-02-01T09:20:25;16.10;66.10
37658;DHT22;23500;53.268;8.308;2023-02-01T09:22:52;16.20;66.20
37658;DHT22;23500;53.268;8.308;2023-02-01T09:25:18;16.10;66.10
37658;DHT22;23500;53.268;8.308;2023-02-01T09:27:44;16.10;66.10
37658;DHT22;23500;53.268;8.308;2023-02-01T09:30:11;16.10;66.10
37658;DHT22;23500;53.268;8.308;2023-02-01T09:32:36;16.10;66.20
37658;DHT22;23500;53.268;8.308;2023-02-01T09:35:03;16.10;66.20
37658;DHT22;23500;53.268;8.308;2023-02-01T09:37:28;16.10;66.30
37658;DHT22;23500;53.268;8.308;2023-02-01T09:39:54;16.10;66.40
37658;DHT22;23500;53.268;8.308;2023-02-01T09:42:26;16.10;66.40
37658;DHT22;23500;53.268;8.308;2023-02-01T09:45:51;16.00;66.40
37658;DHT22;23500;53.268;8.308;2023-02-01T09:47:55;16.00;66.50
37658;DHT22;23500;53.268;8.308;2023-02-01T09:50:35;16.00;66.50
37658;DHT22;23500;53.268;8.308;2023-02-01T09:55:41;15.90;66.70
37658;DHT22;23500;53.268;8.308;2023-02-01T09:58:19;15.90;66.70
37658;DHT22;23500;53.268;8.308;2023-02-01T10:00:59;15.90;66.80
37658;DHT22;23500;53.268;8.308;2023-02-01T10:03:28;15.90;66.80
37658;DHT22;23500;53.268;8.308;2023-02-01T10:22:15;15.80;67.00
37658;DHT22;23500;53.268;8.308;2023-02-01T10:25:05;15.80;67.00
37658;DHT22;23500;53.268;8.308;2023-02-01T10:27:34;15.80;67.10
37658;DHT22;23500;53.268;8.308;2023-02-01T10:30:23;15.80;67.10
37658;DHT22;23500;53.268;8.308;2023-02-01T10:32:55;15.80;67.20
37658;DHT22;23500;53.268;8.308;2023-02-01T10:35:34;15.70;67.10
37658;DHT22;23500;53.268;8.308;2023-02-01T10:38:02;15.70;67.20
37658;DHT22;23500;53.268;8.308;2023-02-01T10:40:31;15.70;67.20
37658;DHT22;23500;53.268;8.308;2023-02-01T10:42:59;15.70;67.30
37658;DHT22;23500;53.268;8.308;2023-02-01T10:45:28;15.70;67.30
37658;DHT22;23500;53.268;8.308;2023-02-01T10:47:56;15.70;67.40
37658;DHT22;23500;53.268;8.308;2023-02-01T10:53:35;15.60;67.50
37658;DHT22;23500;53.268;8.308;2023-02-01T10:56:09;15.70;67.60
37658;DHT22;23500;53.268;8.308;2023-02-01T10:58:42;15.60;67.50
37658;DHT22;23500;53.268;8.308;2023-02-01T11:01:10;15.60;67.60
37658;DHT22;23500;53.268;8.308;2023-02-01T11:06:41;15.60;67.70
37658;DHT22;23500;53.268;8.308;2023-02-01T11:11:56;15.50;67.60
37658;DHT22;23500;53.268;8.308;2023-02-01T11:16:56;15.50;67.70
37658;DHT22;23500;53.268;8.308;2023-02-01T11:19:22;15.50;67.70
37658;DHT22;23500;53.268;8.308;2023-02-01T11:21:55;15.50;67.70
37658;DHT22;23500;53.268;8.308;2023-02-01T11:24:34;15.50;67.80
37658;DHT22;23500;53.268;8.308;2023-02-01T11:27:05;15.50;67.80
37658;DHT22;23500;53.268;8.308;2023-02-01T11:29:40;15.50;67.80
37658;DHT22;23500;53.268;8.308;2023-02-01T11:32:08;15.50;67.80
37658;DHT22;23500;53.268;8.308;2023-02-01T11:35:13;15.40;67.80
37658;DHT22;23500;53.268;8.308;2023-02-01T11:37:41;15.40;67.90
37658;DHT22;23500;53.268;8.308;2023-02-01T11:42:59;15.40;67.90
37658;DHT22;23500;53.268;8.308;2023-02-01T11:45:27;15.40;68.70
37658;DHT22;23500;53.268;8.308;2023-02-01T11:47:55;15.40;68.00
37658;DHT22;23500;53.268;8.308;2023-02-01T11:50:29;15.40;68.10
37658;DHT22;23500;53.268;8.308;2023-02-01T11:53:19;15.40;68.80
37658;DHT22;23500;53.268;8.308;2023-02-01T11:55:49;15.40;68.10
37658;DHT22;23500;53.268;8.308;2023-02-01T12:20:24;15.20;67.60
37658;DHT22;23500;53.268;8.308;2023-02-01T12:31:12;15.20;68.80
37658;DHT22;23500;53.268;8.308;2023-02-01T12:36:42;15.20;68.90
37658;DHT22;23500;53.268;8.308;2023-02-01T12:39:40;15.20;68.90
37658;DHT22;23500;53.268;8.308;2023-02-01T12:42:12;15.10;69.00
37658;DHT22;23500;53.268;8.308;2023-02-01T12:44:56;15.10;68.90
37658;DHT22;23500;53.268;8.308;2023-02-01T12:47:35;15.10;69.00
37658;DHT22;23500;53.268;8.308;2023-02-01T12:50:12;15.10;69.00
37658;DHT22;23500;53.268;8.308;2023-02-01T12:52:50;15.20;69.00
37658;DHT22;23500;53.268;8.308;2023-02-01T12:55:24;15.20;69.00
37658;DHT22;23500;53.268;8.308;2023-02-01T12:58:14;15.30;68.80
37658;DHT22;23500;53.268;8.308;2023-02-01T13:00:49;15.40;68.50
37658;DHT22;23500;53.268;8.308;2023-02-01T13:06:35;16.60;65.00
37658;DHT22;23500;53.268;8.308;2023-02-01T13:11:43;19.10;57.30
37658;DHT22;23500;53.268;8.308;2023-02-01T13:14:23;20.10;54.70
37658;DHT22;23500;53.268;8.308;2023-02-01T13:22:25;22.80;48.00
37658;DHT22;23500;53.268;8.308;2023-02-01T13:25:02;23.40;47.10
37658;DHT22;23500;53.268;8.308;2023-02-01T13:27:29;24.00;46.00
37658;DHT22;23500;53.268;8.308;2023-02-01T13:29:57;24.40;45.00
37658;DHT22;23500;53.268;8.308;2023-02-01T13:32:37;24.70;44.20
37658;DHT22;23500;53.268;8.308;2023-02-01T13:38:02;24.80;44.00
37658;DHT22;23500;53.268;8.308;2023-02-01T13:45:50;24.00;45.70
37658;DHT22;23500;53.268;8.308;2023-02-01T13:48:29;23.60;46.40
37658;DHT22;23500;53.268;8.308;2023-02-01T13:50:57;23.20;47.40
37658;DHT22;23500;53.268;8.308;2023-02-01T13:53:30;22.80;48.20
37658;DHT22;23500;53.268;8.308;2023-02-01T13:58:39;22.10;49.80
37658;DHT22;23500;53.268;8.308;2023-02-01T14:03:54;21.30;51.50
37658;DHT22;23500;53.268;8.308;2023-02-01T14:11:47;20.50;53.50
37658;DHT22;23500;53.268;8.308;2023-02-01T14:21:49;19.70;55.40
37658;DHT22;23500;53.268;8.308;2023-02-01T14:24:27;19.50;55.80
37658;DHT22;23500;53.268;8.308;2023-02-01T14:26:56;19.30;56.20
37658;DHT22;23500;53.268;8.308;2023-02-01T14:29:34;19.10;56.70
37658;DHT22;23500;53.268;8.308;2023-02-01T14:32:19;19.00;57.10
37658;DHT22;23500;53.268;8.308;2023-02-01T14:42:21;19.80;55.60
37658;DHT22;23500;53.268;8.308;2023-02-01T14:44:48;20.30;53.70
37658;DHT22;23500;53.268;8.308;2023-02-01T14:53:11;21.30;51.50
37658;DHT22;23500;53.268;8.308;2023-02-01T15:01:03;21.00;52.40
37658;DHT22;23500;53.268;8.308;2023-02-01T15:04:08;20.80;52.90
37658;DHT22;23500;53.268;8.308;2023-02-01T15:06:53;20.50;53.50
37658;DHT22;23500;53.268;8.308;2023-02-01T15:09:36;20.20;54.20
37658;DHT22;23500;53.268;8.308;2023-02-01T15:14:40;19.80;55.30
37658;DHT22;23500;53.268;8.308;2023-02-01T15:17:25;19.60;55.70
37658;DHT22;23500;53.268;8.308;2023-02-01T15:19:59;19.40;56.00
37658;DHT22;23500;53.268;8.308;2023-02-01T15:22:27;19.30;56.40
37658;DHT22;23500;53.268;8.308;2023-02-01T15:24:57;19.10;56.70
37658;DHT22;23500;53.268;8.308;2023-02-01T15:27:25;19.00;57.10
37658;DHT22;23500;53.268;8.308;2023-02-01T15:29:51;18.90;57.40
37658;DHT22;23500;53.268;8.308;2023-02-01T15:34:54;18.70;58.00
37658;DHT22;23500;53.268;8.308;2023-02-01T15:37:21;18.70;57.90
37658;DHT22;23500;53.268;8.308;2023-02-01T15:40:23;18.80;57.80
37658;DHT22;23500;53.268;8.308;2023-02-01T15:42:54;19.00;57.00
37658;DHT22;23500;53.268;8.308;2023-02-01T15:45:32;19.50;55.70
37658;DHT22;23500;53.268;8.308;2023-02-01T15:47:58;20.00;54.60
37658;DHT22;23500;53.268;8.308;2023-02-01T15:50:25;20.40;53.60
37658;DHT22;23500;53.268;8.308;2023-02-01T15:52:53;20.70;52.90
37658;DHT22;23500;53.268;8.308;2023-02-01T15:55:24;20.80;52.70
37658;DHT22;23500;53.268;8.308;2023-02-01T15:57:52;20.80;52.80
37658;DHT22;23500;53.268;8.308;2023-02-01T16:00:23;20.70;53.10
37658;DHT22;23500;53.268;8.308;2023-02-01T16:05:41;20.30;54.10
37658;DHT22;23500;53.268;8.308;2023-02-01T16:08:16;20.00;54.70
37658;DHT22;23500;53.268;8.308;2023-02-01T16:10:46;19.80;55.10
37658;DHT22;23500;53.268;8.308;2023-02-01T16:13:14;19.70;55.50
37658;DHT22;23500;53.268;8.308;2023-02-01T16:15:40;19.50;55.90
37658;DHT22;23500;53.268;8.308;2023-02-01T16:18:06;19.30;56.30
37658;DHT22;23500;53.268;8.308;2023-02-01T16:20:34;19.20;56.60
37658;DHT22;23500;53.268;8.308;2023-02-01T16:23:01;19.00;56.90
37658;DHT22;23500;53.268;8.308;2023-02-01T16:25:27;18.90;57.40
37658;DHT22;23500;53.268;8.308;2023-02-01T16:27:53;18.80;57.80
37658;DHT22;23500;53.268;8.308;2023-02-01T16:30:19;18.70;58.00
37658;DHT22;23500;53.268;8.308;2023-02-01T16:32:55;18.70;58.60
37658;DHT22;23500;53.268;8.308;2023-02-01T16:37:51;18.90;57.70
37658;DHT22;23500;53.268;8.308;2023-02-01T16:40:18;19.00;57.10
37658;DHT22;23500;53.268;8.308;2023-02-01T16:42:45;19.20;56.70
37658;DHT22;23500;53.268;8.308;2023-02-01T16:45:11;19.40;56.20
37658;DHT22;23500;53.268;8.308;2023-02-01T16:47:38;19.60;55.90
37658;DHT22;23500;53.268;8.308;2023-02-01T16:50:15;19.70;55.50
37658;DHT22;23500;53.268;8.308;2023-02-01T16:52:42;19.80;55.20
37658;DHT22;23500;53.268;8.308;2023-02-01T16:55:13;19.90;55.20
37658;DHT22;23500;53.268;8.308;2023-02-01T16:57:39;19.80;55.40
37658;DHT22;23500;53.268;8.308;2023-02-01T17:00:05;19.70;55.50
37658;DHT22;23500;53.268;8.308;2023-02-01T17:02:31;19.60;55.80
37658;DHT22;23500;53.268;8.308;2023-02-01T17:04:57;19.60;56.00
37658;DHT22;23500;53.268;8.308;2023-02-01T17:07:22;19.40;56.30
37658;DHT22;23500;53.268;8.308;2023-02-01T17:09:48;19.30;56.70
37658;DHT22;23500;53.268;8.308;2023-02-01T17:12:23;19.20;57.00
37658;DHT22;23500;53.268;8.308;2023-02-01T17:14:49;19.00;57.20
37658;DHT22;23500;53.268;8.308;2023-02-01T17:17:16;18.90;57.50
37658;DHT22;23500;53.268;8.308;2023-02-01T17:19:43;18.80;57.80
37658;DHT22;23500;53.268;8.308;2023-02-01T17:22:10;18.70;58.00
37658;DHT22;23500;53.268;8.308;2023-02-01T17:24:35;18.70;58.20
37658;DHT22;23500;53.268;8.308;2023-02-01T17:27:01;18.60;58.20
37658;DHT22;23500;53.268;8.308;2023-02-01T17:29:28;18.60;58.20
37658;DHT22;23500;53.268;8.308;2023-02-01T17:31:55;18.70;58.00
37658;DHT22;23500;53.268;8.308;2023-02-01T17:34:21;18.80;57.80
37658;DHT22;23500;53.268;8.308;2023-02-01T17:36:47;19.00;57.40
37658;DHT22;23500;53.268;8.308;2023-02-01T17:39:15;19.10;57.00
37658;DHT22;23500;53.268;8.308;2023-02-01T17:42:01;19.20;56.50
37658;DHT22;23500;53.268;8.308;2023-02-01T17:44:27;19.40;56.30
37658;DHT22;23500;53.268;8.308;2023-02-01T17:46:53;19.40;56.20
37658;DHT22;23500;53.268;8.308;2023-02-01T17:49:21;19.40;56.40
37658;DHT22;23500;53.268;8.308;2023-02-01T17:51:47;19.30;56.60
37658;DHT22;23500;53.268;8.308;2023-02-01T17:54:15;19.20;56.80
37658;DHT22;23500;53.268;8.308;2023-02-01T17:56:42;19.10;57.00
37658;DHT22;23500;53.268;8.308;2023-02-01T17:59:08;19.00;57.30
37658;DHT22;23500;53.268;8.308;2023-02-01T18:01:33;18.90;57.60
37658;DHT22;23500;53.268;8.308;2023-02-01T18:03:59;18.80;57.90
37658;DHT22;23500;53.268;8.308;2023-02-01T18:06:26;18.70;58.10
37658;DHT22;23500;53.268;8.308;2023-02-01T18:08:52;18.50;58.30
37658;DHT22;23500;53.268;8.308;2023-02-01T18:11:23;18.50;58.60
37658;DHT22;23500;53.268;8.308;2023-02-01T18:13:51;18.40;58.70
37658;DHT22;23500;53.268;8.308;2023-02-01T18:16:26;18.30;58.90
37658;DHT22;23500;53.268;8.308;2023-02-01T18:18:53;18.20;59.10
37658;DHT22;23500;53.268;8.308;2023-02-01T18:21:20;18.20;59.40
37658;DHT22;23500;53.268;8.308;2023-02-01T18:23:47;18.00;59.50
37658;DHT22;23500;53.268;8.308;2023-02-01T18:26:14;18.00;60.40
37658;DHT22;23500;53.268;8.308;2023-02-01T18:28:40;17.90;60.00
37658;DHT22;23500;53.268;8.308;2023-02-01T18:31:10;17.80;60.10
37658;DHT22;23500;53.268;8.308;2023-02-01T18:33:41;17.80;60.40
37658;DHT22;23500;53.268;8.308;2023-02-01T18:36:11;17.80;60.50
37658;DHT22;23500;53.268;8.308;2023-02-01T18:38:37;17.80;60.60
37658;DHT22;23500;53.268;8.308;2023-02-01T18:41:03;17.70;60.70